createdAt,value
2017-08-26T00:02:19.992Z,86.80
2017-08-26T00:04:48.948Z,86.90
2017-08-26T00:07:18.146Z,87.00
2017-08-26T00:09:47.086Z,87.90
2017-08-26T00:12:16.252Z,86.90
2017-08-26T00:14:45.202Z,87.00
2017-08-26T00:17:14.221Z,86.60
2017-08-26T00:19:44.183Z,87.40
2017-08-26T00:22:13.574Z,87.40
2017-08-26T00:24:42.552Z,87.10
2017-08-26T00:27:11.514Z,87.40
2017-08-26T00:29:40.513Z,87.10
2017-08-26T00:32:09.501Z,86.90
2017-08-26T00:34:38.447Z,86.60
2017-08-26T00:37:07.428Z,86.70
2017-08-26T00:39:36.408Z,86.80
2017-08-26T00:42:05.450Z,87.20
2017-08-26T00:44:34.446Z,86.80
2017-08-26T00:47:04.593Z,87.30
2017-08-26T00:49:34.330Z,86.40
2017-08-26T00:52:03.289Z,86.40
2017-08-26T00:54:32.240Z,86.90
2017-08-26T00:57:01.208Z,87.10
2017-08-26T00:59:30.437Z,86.60
2017-08-26T01:01:59.467Z,86.80
2017-08-26T01:04:28.423Z,87.10
2017-08-26T01:07:03.190Z,87.00
2017-08-26T01:09:32.138Z,87.80
2017-08-26T01:12:01.103Z,87.00
2017-08-26T01:14:30.052Z,87.00
2017-08-26T01:16:59.786Z,88.20
2017-08-26T01:19:28.731Z,88.20
2017-08-26T01:21:58.562Z,88.60
2017-08-26T01:24:27.506Z,88.30
2017-08-26T01:26:56.551Z,88.10
2017-08-26T01:29:26.173Z,88.30
2017-08-26T01:31:55.160Z,87.90
2017-08-26T01:34:24.872Z,88.30
2017-08-26T01:36:54.061Z,88.30
2017-08-26T01:39:23.073Z,88.40
2017-08-26T01:41:52.048Z,88.00
2017-08-26T01:44:21.217Z,88.10
2017-08-26T01:46:50.196Z,88.10
2017-08-26T01:49:19.189Z,88.30
2017-08-26T01:51:51.228Z,88.40
2017-08-26T01:54:20.204Z,88.00
2017-08-26T01:56:49.181Z,88.20
2017-08-26T01:59:18.150Z,88.10
2017-08-26T02:01:47.137Z,88.10
2017-08-26T02:04:16.105Z,88.10
2017-08-26T02:06:45.107Z,87.80
2017-08-26T02:09:14.070Z,87.50
2017-08-26T02:11:43.092Z,87.70
2017-08-26T02:14:12.081Z,87.70
2017-08-26T02:16:41.093Z,87.60
2017-08-26T02:19:10.083Z,87.30
2017-08-26T02:21:39.090Z,88.10
2017-08-26T02:24:08.119Z,87.00
2017-08-26T02:26:37.324Z,88.20
2017-08-26T02:29:06.338Z,87.60
2017-08-26T02:31:35.406Z,87.80
2017-08-26T02:34:04.382Z,87.50
2017-08-26T02:36:33.383Z,87.90
2017-08-26T02:39:02.555Z,88.50
2017-08-26T02:41:32.282Z,88.10
2017-08-26T02:44:01.255Z,88.10
2017-08-26T02:46:30.219Z,88.20
2017-08-26T02:48:59.190Z,88.30
2017-08-26T02:51:28.175Z,87.90
2017-08-26T02:53:57.148Z,87.80
2017-08-26T02:56:26.115Z,87.70
2017-08-26T02:58:55.111Z,87.80
2017-08-26T03:01:24.078Z,87.50
2017-08-26T03:03:53.075Z,87.60
2017-08-26T03:06:22.413Z,87.90
2017-08-26T03:08:51.436Z,88.50
2017-08-26T03:11:21.318Z,88.20
2017-08-26T03:13:50.318Z,88.20
2017-08-26T03:16:19.275Z,88.10
2017-08-26T03:18:48.265Z,87.90
2017-08-26T03:21:17.229Z,88.20
2017-08-26T03:23:46.213Z,88.40
2017-08-26T03:26:15.473Z,88.70
2017-08-26T03:28:44.459Z,88.30
2017-08-26T03:31:13.416Z,88.90
2017-08-26T03:33:42.594Z,88.50
2017-08-26T03:36:11.723Z,88.60
2017-08-26T03:38:40.681Z,88.70
2017-08-26T03:41:09.700Z,88.90
2017-08-26T03:43:38.683Z,88.80
2017-08-26T03:46:07.645Z,88.90
2017-08-26T03:48:36.628Z,89.00
2017-08-26T03:51:06.370Z,89.20
2017-08-26T03:53:35.384Z,89.10
2017-08-26T03:56:04.450Z,89.00
2017-08-26T03:58:33.421Z,88.90
2017-08-26T04:01:02.409Z,88.70
2017-08-26T04:03:31.409Z,89.20
2017-08-26T04:06:00.343Z,89.80
2017-08-26T04:08:29.330Z,89.60
2017-08-26T04:10:58.306Z,89.50
2017-08-26T04:13:27.264Z,88.50
2017-08-26T04:15:56.315Z,89.20
2017-08-26T04:18:25.482Z,88.60
2017-08-26T04:20:54.697Z,88.50
2017-08-26T04:23:23.645Z,88.70
2017-08-26T04:25:52.615Z,89.10
2017-08-26T04:28:21.577Z,88.90
2017-08-26T04:30:50.573Z,88.80
2017-08-26T04:33:19.518Z,88.60
2017-08-26T04:35:48.503Z,88.90
2017-08-26T04:38:17.445Z,88.90
2017-08-26T04:40:46.442Z,88.30
2017-08-26T04:43:15.406Z,88.70
2017-08-26T04:45:44.382Z,89.10
2017-08-26T04:48:13.369Z,89.10
2017-08-26T04:50:42.395Z,89.00
2017-08-26T04:53:12.255Z,88.50
2017-08-26T04:55:41.247Z,88.60
2017-08-26T04:58:10.567Z,88.80
2017-08-26T05:00:39.557Z,88.10
2017-08-26T05:03:08.518Z,89.20
2017-08-26T05:05:37.503Z,88.30
2017-08-26T05:08:06.484Z,88.00
2017-08-26T05:10:35.442Z,88.10
2017-08-26T05:13:04.414Z,87.80
2017-08-26T05:15:33.397Z,87.80
2017-08-26T05:18:02.366Z,87.00
2017-08-26T05:20:31.444Z,88.00
2017-08-26T05:23:16.574Z,87.70
2017-08-26T05:25:45.549Z,87.80
2017-08-26T05:28:14.509Z,87.50
2017-08-26T05:30:43.525Z,87.50
2017-08-26T05:33:12.494Z,87.10
2017-08-26T05:35:41.480Z,86.70
2017-08-26T05:38:10.925Z,86.60
2017-08-26T05:40:39.919Z,86.30
2017-08-26T05:43:08.868Z,85.80
2017-08-26T05:45:37.962Z,86.00
2017-08-26T05:48:06.922Z,85.50
2017-08-26T05:50:35.890Z,85.80
2017-08-26T05:53:04.871Z,85.60
2017-08-26T05:55:33.927Z,86.60
2017-08-26T05:58:03.021Z,86.30
2017-08-26T06:00:31.983Z,85.60
2017-08-26T06:03:00.975Z,85.80
2017-08-26T06:05:29.938Z,84.10
2017-08-26T06:07:58.934Z,84.40
2017-08-26T06:10:27.889Z,84.70
2017-08-26T06:12:56.882Z,85.70
2017-08-26T06:15:25.852Z,85.20
2017-08-26T06:17:54.842Z,84.80
2017-08-26T06:20:23.808Z,83.20
2017-08-26T06:22:52.799Z,83.50
2017-08-26T06:25:21.830Z,82.80
2017-08-26T06:27:50.957Z,82.10
2017-08-26T06:30:19.916Z,81.80
2017-08-26T06:32:48.905Z,81.30
2017-08-26T06:35:17.854Z,82.50
2017-08-26T06:37:47.353Z,81.80
2017-08-26T06:40:16.325Z,81.60
2017-08-26T06:42:45.318Z,81.70
2017-08-26T06:45:14.708Z,79.90
2017-08-26T06:47:44.455Z,80.60
2017-08-26T06:50:13.404Z,80.60
2017-08-26T06:52:42.492Z,81.20
2017-08-26T06:55:11.441Z,80.30
2017-08-26T06:57:40.449Z,80.80
2017-08-26T07:00:09.389Z,79.80
2017-08-26T07:02:38.369Z,78.80
2017-08-26T07:05:07.365Z,78.70
2017-08-26T07:07:36.348Z,77.80
2017-08-26T07:10:05.336Z,77.60
2017-08-26T07:12:34.316Z,78.20
2017-08-26T07:15:03.282Z,78.10
2017-08-26T07:17:32.242Z,78.30
2017-08-26T07:20:01.238Z,76.30
2017-08-26T07:22:30.189Z,77.60
2017-08-26T07:24:59.302Z,76.30
2017-08-26T07:27:29.026Z,75.50
2017-08-26T07:29:58.023Z,75.40
2017-08-26T07:32:26.991Z,74.30
2017-08-26T07:34:56.172Z,75.40
2017-08-26T07:37:25.250Z,73.00
2017-08-26T07:39:54.242Z,74.60
2017-08-26T07:42:23.230Z,75.70
2017-08-26T07:44:52.192Z,75.30
2017-08-26T07:47:21.145Z,73.80
2017-08-26T07:49:50.902Z,72.80
2017-08-26T07:52:20.783Z,72.60
2017-08-26T07:54:49.751Z,73.50
2017-08-26T07:57:18.717Z,72.30
2017-08-26T07:59:47.674Z,72.50
2017-08-26T08:02:16.650Z,73.50
2017-08-26T08:04:45.621Z,73.40
2017-08-26T08:07:15.358Z,71.30
2017-08-26T08:09:44.314Z,70.90
2017-08-26T08:12:13.284Z,70.80
2017-08-26T08:14:42.577Z,69.50
2017-08-26T08:17:11.529Z,70.00
2017-08-26T08:19:40.725Z,70.50
2017-08-26T08:22:09.703Z,69.10
2017-08-26T08:24:38.648Z,69.80
2017-08-26T08:27:07.625Z,70.00
2017-08-26T08:29:36.576Z,68.60
2017-08-26T08:32:05.561Z,67.90
2017-08-26T08:34:34.521Z,67.30
2017-08-26T08:37:03.565Z,68.20
2017-08-26T08:39:32.529Z,67.90
2017-08-26T08:42:01.496Z,67.00
2017-08-26T08:44:30.446Z,65.70
2017-08-26T08:46:59.420Z,65.00
2017-08-26T08:49:28.375Z,66.10
2017-08-26T08:51:57.390Z,66.60
2017-08-26T08:54:26.509Z,67.70
2017-08-26T08:56:55.491Z,64.10
2017-08-26T08:59:24.468Z,62.20
2017-08-26T09:01:53.433Z,63.30
2017-08-26T09:04:22.452Z,64.50
2017-08-26T09:06:51.446Z,64.80
2017-08-26T09:09:20.405Z,63.30
2017-08-26T09:11:49.393Z,64.30
2017-08-26T09:14:18.373Z,62.50
2017-08-26T09:16:47.492Z,64.60
2017-08-26T09:19:16.474Z,65.10
2017-08-26T09:21:45.421Z,65.20
2017-08-26T09:24:15.982Z,61.70
2017-08-26T09:26:44.954Z,61.50
2017-08-26T09:29:13.930Z,60.40
2017-08-26T09:31:42.884Z,60.80
2017-08-26T09:34:11.871Z,58.80
2017-08-26T09:36:40.931Z,59.00
2017-08-26T09:39:09.911Z,57.60
2017-08-26T09:41:38.852Z,58.80
2017-08-26T09:44:07.839Z,57.10
2017-08-26T09:46:36.782Z,57.50
2017-08-26T09:49:05.780Z,58.00
2017-08-26T09:51:34.753Z,56.80
2017-08-26T09:54:04.652Z,56.80
2017-08-26T09:56:33.602Z,57.70
2017-08-26T09:59:02.642Z,59.20
2017-08-26T10:01:31.667Z,58.80
2017-08-26T10:04:00.651Z,59.60
2017-08-26T10:06:29.639Z,59.70
2017-08-26T10:08:59.359Z,60.20
2017-08-26T10:11:28.304Z,60.20
2017-08-26T10:13:57.285Z,59.30
2017-08-26T10:16:26.425Z,59.00
2017-08-26T10:18:55.394Z,55.90
2017-08-26T10:21:24.345Z,56.10
2017-08-26T10:23:53.320Z,55.90
2017-08-26T10:26:22.351Z,55.00
2017-08-26T10:28:51.320Z,53.10
2017-08-26T10:31:20.312Z,54.90
2017-08-26T10:33:49.265Z,53.80
2017-08-26T10:36:18.243Z,54.70
2017-08-26T10:38:47.233Z,55.20
2017-08-26T10:41:16.580Z,54.20
2017-08-26T10:43:45.866Z,54.00
2017-08-26T10:46:15.012Z,54.60
2017-08-26T10:48:44.002Z,52.70
2017-08-26T10:51:12.960Z,53.20
2017-08-26T10:53:41.955Z,50.70
2017-08-26T10:56:11.074Z,53.40
2017-08-26T10:58:40.198Z,53.50
2017-08-26T11:01:09.175Z,53.90
2017-08-26T11:03:38.128Z,54.40
2017-08-26T11:06:07.244Z,54.40
2017-08-26T11:08:36.198Z,53.50
2017-08-26T11:11:05.195Z,54.30
2017-08-26T11:13:34.168Z,53.50
2017-08-26T11:16:03.157Z,52.60
2017-08-26T11:18:32.140Z,54.30
2017-08-26T11:21:01.138Z,51.40
2017-08-26T11:23:30.102Z,50.90
2017-08-26T11:25:59.068Z,48.10
2017-08-26T11:28:28.042Z,48.00
2017-08-26T11:30:57.142Z,48.20
2017-08-26T11:33:26.375Z,46.10
2017-08-26T11:35:55.334Z,47.20
2017-08-26T11:38:24.433Z,47.40
2017-08-26T11:40:53.414Z,44.20
2017-08-26T11:43:23.169Z,47.10
2017-08-26T11:45:52.198Z,46.50
2017-08-26T11:48:21.177Z,45.10
2017-08-26T11:50:50.166Z,46.50
2017-08-26T11:53:19.779Z,46.20
2017-08-26T11:55:48.761Z,44.60
2017-08-26T11:58:17.958Z,43.80
2017-08-26T12:00:46.959Z,42.70
2017-08-26T12:03:16.282Z,41.30
2017-08-26T12:05:45.951Z,41.00
2017-08-26T12:08:14.904Z,41.00
2017-08-26T12:10:43.890Z,40.10
2017-08-26T12:13:13.668Z,37.70
2017-08-26T12:15:42.673Z,37.60
2017-08-26T12:18:11.742Z,40.30
2017-08-26T12:20:40.716Z,40.20
2017-08-26T12:23:09.701Z,41.40
2017-08-26T12:25:38.723Z,41.50
2017-08-26T12:28:07.748Z,39.50
2017-08-26T12:30:36.814Z,40.40
2017-08-26T12:33:05.901Z,41.50
2017-08-26T12:35:34.872Z,43.60
2017-08-26T12:38:04.764Z,40.50
2017-08-26T12:40:33.733Z,37.40
2017-08-26T12:43:04.044Z,37.00
2017-08-26T12:45:33.250Z,38.50
2017-08-26T12:48:02.207Z,39.40
2017-08-26T12:50:31.175Z,40.90
2017-08-26T12:53:00.144Z,43.90
2017-08-26T12:55:29.124Z,43.80
2017-08-26T12:57:58.119Z,46.00
2017-08-26T13:00:27.282Z,48.90
2017-08-26T13:02:56.307Z,47.60
2017-08-26T13:05:25.420Z,45.20
2017-08-26T13:07:55.378Z,44.30
2017-08-26T13:10:24.358Z,42.60
2017-08-26T13:12:53.329Z,40.20
2017-08-26T13:15:22.443Z,41.20
2017-08-26T13:17:51.399Z,40.90
2017-08-26T13:20:20.388Z,41.80
2017-08-26T13:22:49.340Z,42.40
2017-08-26T13:25:18.339Z,40.70
2017-08-26T13:27:48.035Z,37.70
2017-08-26T13:30:17.026Z,37.70
2017-08-26T13:32:45.978Z,33.70
2017-08-26T13:35:15.039Z,37.90
2017-08-26T13:37:44.016Z,36.70
2017-08-26T13:40:12.982Z,39.50
2017-08-26T13:42:43.196Z,43.30
2017-08-26T13:45:12.201Z,43.30
2017-08-26T13:47:41.179Z,44.50
2017-08-26T13:50:10.221Z,42.60
2017-08-26T13:52:39.198Z,37.40
2017-08-26T13:55:08.154Z,36.00
2017-08-26T13:57:37.143Z,38.00
2017-08-26T14:00:06.115Z,40.90
2017-08-26T14:02:36.780Z,43.00
2017-08-26T14:05:07.502Z,42.70
2017-08-26T14:07:36.489Z,45.70
2017-08-26T14:10:05.507Z,46.00
2017-08-26T14:12:34.683Z,50.80
2017-08-26T14:15:03.896Z,49.80
2017-08-26T14:17:32.900Z,50.00
2017-08-26T14:20:01.870Z,50.80
2017-08-26T14:22:30.885Z,51.00
2017-08-26T14:24:59.824Z,52.40
2017-08-26T14:27:28.806Z,56.10
2017-08-26T14:29:58.091Z,54.50
2017-08-26T14:32:27.096Z,53.30
2017-08-26T14:34:56.336Z,55.00
2017-08-26T14:37:25.445Z,54.70
2017-08-26T14:39:54.397Z,56.00
2017-08-26T14:42:23.399Z,57.90
2017-08-26T14:44:52.433Z,58.40
2017-08-26T14:47:21.416Z,57.80
2017-08-26T14:49:50.407Z,58.10
2017-08-26T14:52:21.374Z,58.10
2017-08-26T14:54:52.556Z,57.90
2017-08-26T14:57:21.583Z,56.00
2017-08-26T14:59:50.530Z,54.40
2017-08-26T15:02:21.459Z,52.60
2017-08-26T15:04:50.481Z,52.60
2017-08-26T15:07:19.436Z,52.70
2017-08-26T15:09:48.405Z,53.40
2017-08-26T15:12:17.493Z,52.20
2017-08-26T15:14:46.428Z,52.90
2017-08-26T15:17:15.478Z,51.40
2017-08-26T15:19:44.512Z,50.70
2017-08-26T15:22:13.473Z,52.60
2017-08-26T15:24:42.447Z,52.70
2017-08-26T15:27:11.393Z,53.20
2017-08-26T15:29:40.367Z,52.70
2017-08-26T15:32:09.313Z,51.90
2017-08-26T15:34:38.302Z,52.30
2017-08-26T15:37:07.246Z,54.50
2017-08-26T15:39:36.306Z,53.10
2017-08-26T15:42:05.282Z,53.40
2017-08-26T15:44:34.267Z,55.00
2017-08-26T15:47:03.234Z,56.30
2017-08-26T15:49:32.196Z,56.00
2017-08-26T15:52:01.146Z,55.60
2017-08-26T15:54:30.108Z,57.60
2017-08-26T15:56:59.082Z,55.40
2017-08-26T15:59:28.066Z,54.70
2017-08-26T16:01:57.012Z,55.70
2017-08-26T16:04:26.312Z,55.20
2017-08-26T16:06:55.354Z,56.50
2017-08-26T16:09:24.333Z,56.50
2017-08-26T16:11:53.315Z,55.50
2017-08-26T16:14:22.301Z,56.30
2017-08-26T16:16:51.459Z,57.40
2017-08-26T16:19:20.439Z,57.90
2017-08-26T16:21:49.484Z,58.20
2017-08-26T16:24:18.434Z,58.80
2017-08-26T16:26:47.377Z,59.60
2017-08-26T16:29:16.340Z,59.80
2017-08-26T16:31:45.287Z,61.10
2017-08-26T16:34:14.269Z,61.90
2017-08-26T16:36:43.233Z,62.30
2017-08-26T16:39:12.314Z,61.60
2017-08-26T16:41:41.438Z,61.60
2017-08-26T16:44:10.628Z,62.60
2017-08-26T16:46:39.592Z,62.20
2017-08-26T16:49:08.542Z,61.20
2017-08-26T16:51:37.600Z,61.30
2017-08-26T16:54:06.646Z,63.30
2017-08-26T16:56:35.624Z,62.80
2017-08-26T16:59:04.585Z,62.90
2017-08-26T17:01:34.343Z,63.00
2017-08-26T17:04:03.326Z,63.10
2017-08-26T17:06:32.290Z,62.70
2017-08-26T17:09:01.294Z,62.70
2017-08-26T17:11:30.369Z,63.30
2017-08-26T17:13:59.348Z,61.90
2017-08-26T17:16:28.332Z,61.20
2017-08-26T17:18:57.296Z,62.20
2017-08-26T17:21:26.259Z,62.00
2017-08-26T17:23:55.233Z,61.70
2017-08-26T17:26:24.186Z,62.30
2017-08-26T17:28:53.155Z,64.10
2017-08-26T17:31:22.148Z,64.20
2017-08-26T17:33:51.133Z,61.30
2017-08-26T17:36:20.085Z,61.60
2017-08-26T17:38:49.063Z,63.70
2017-08-26T17:41:18.027Z,63.30
2017-08-26T17:43:47.393Z,63.00
2017-08-26T17:46:16.475Z,64.20
2017-08-26T17:48:45.482Z,65.30
2017-08-26T17:51:14.543Z,66.00
2017-08-26T17:53:44.298Z,69.10
2017-08-26T17:56:13.267Z,69.10
2017-08-26T17:58:42.220Z,67.80
2017-08-26T18:01:11.201Z,68.50
2017-08-26T18:03:40.230Z,69.80
2017-08-26T18:06:09.203Z,70.90
2017-08-26T18:08:38.180Z,72.10
2017-08-26T18:11:07.181Z,70.90
2017-08-26T18:13:36.414Z,69.40
2017-08-26T18:16:05.406Z,70.00
2017-08-26T18:18:34.348Z,71.00
2017-08-26T18:21:03.360Z,71.60
2017-08-26T18:23:32.371Z,70.80
2017-08-26T18:26:01.333Z,71.00
2017-08-26T18:28:30.286Z,71.60
2017-08-26T18:30:59.290Z,71.70
2017-08-26T18:33:28.257Z,72.70
2017-08-26T18:35:57.244Z,72.00
2017-08-26T18:38:26.208Z,73.80
2017-08-26T18:40:55.970Z,73.70
2017-08-26T18:43:24.948Z,72.90
2017-08-26T18:45:54.016Z,73.10
2017-08-26T18:48:23.490Z,72.70
2017-08-26T18:50:52.552Z,73.30
2017-08-26T18:53:21.506Z,73.50
2017-08-26T18:55:50.566Z,74.30
2017-08-26T18:58:19.525Z,74.40
2017-08-26T19:00:48.587Z,74.60
2017-08-26T19:03:18.317Z,75.60
2017-08-26T19:05:47.268Z,75.70
2017-08-26T19:08:17.005Z,74.70
2017-08-26T19:10:45.978Z,74.70
2017-08-26T19:13:14.949Z,75.70
2017-08-26T19:15:43.964Z,76.30
2017-08-26T19:18:13.946Z,76.40
2017-08-26T19:20:44.142Z,76.50
2017-08-26T19:23:13.108Z,76.40
2017-08-26T19:25:42.138Z,77.00
2017-08-26T19:28:11.104Z,77.20
2017-08-26T19:30:40.123Z,77.60
2017-08-26T19:33:09.116Z,77.30
2017-08-26T19:35:38.136Z,78.00
2017-08-26T19:38:07.093Z,78.00
2017-08-26T19:40:36.142Z,78.00
2017-08-26T19:43:05.198Z,78.20
2017-08-26T19:45:34.232Z,78.50
2017-08-26T19:48:03.180Z,77.90
2017-08-26T19:50:32.427Z,78.40
2017-08-26T19:53:01.383Z,78.90
2017-08-26T19:55:30.343Z,78.30
2017-08-26T19:57:59.317Z,78.70
2017-08-26T20:00:28.276Z,79.10
2017-08-26T20:02:57.250Z,79.10
2017-08-26T20:05:26.255Z,79.70
2017-08-26T20:07:55.420Z,78.70
2017-08-26T20:10:24.410Z,78.80
2017-08-26T20:12:53.538Z,78.60
2017-08-26T20:15:22.487Z,78.30
2017-08-26T20:17:51.461Z,79.30
2017-08-26T20:20:20.441Z,78.40
2017-08-26T20:22:49.433Z,78.40
2017-08-26T20:25:18.391Z,79.40
2017-08-26T20:27:47.380Z,80.60
2017-08-26T20:30:16.680Z,80.20
2017-08-26T20:32:45.676Z,81.80
2017-08-26T20:35:14.713Z,82.40
2017-08-26T20:37:43.788Z,83.70
2017-08-26T20:40:12.794Z,83.70
2017-08-26T20:42:41.926Z,83.50
2017-08-26T20:45:10.872Z,84.20
2017-08-26T20:47:39.906Z,85.10
2017-08-26T20:50:08.890Z,85.60
2017-08-26T20:52:37.877Z,85.40
2017-08-26T20:55:06.839Z,85.00
2017-08-26T20:57:35.831Z,85.30
2017-08-26T21:00:05.568Z,86.70
2017-08-26T21:02:34.570Z,86.70
2017-08-26T21:05:03.532Z,86.70
2017-08-26T21:07:32.614Z,86.90
2017-08-26T21:10:01.569Z,88.10
2017-08-26T21:12:30.545Z,88.70
2017-08-26T21:14:59.530Z,89.10
2017-08-26T21:17:28.592Z,90.00
2017-08-26T21:19:57.712Z,88.70
2017-08-26T21:22:26.772Z,88.20
2017-08-26T21:24:55.823Z,88.00
2017-08-26T21:27:25.159Z,88.70
2017-08-26T21:29:55.131Z,89.00
2017-08-26T21:32:28.805Z,90.00
2017-08-26T21:34:57.795Z,89.80
2017-08-26T21:37:27.110Z,90.10
2017-08-26T21:39:57.249Z,89.20
2017-08-26T21:42:26.515Z,89.20
2017-08-26T21:44:55.502Z,89.60
2017-08-26T21:47:24.615Z,90.00
2017-08-26T21:49:53.984Z,89.10
2017-08-26T21:52:22.929Z,89.00
2017-08-26T21:54:51.901Z,89.60
2017-08-26T21:57:21.060Z,89.90
2017-08-26T21:59:50.050Z,90.00
2017-08-26T22:02:19.868Z,90.50
2017-08-26T22:04:48.851Z,90.50
2017-08-26T22:07:17.967Z,90.20
2017-08-26T22:09:46.971Z,89.90
2017-08-26T22:12:16.697Z,90.20
2017-08-26T22:14:45.750Z,90.30
2017-08-26T22:17:14.725Z,90.40
2017-08-26T22:19:43.684Z,90.70
2017-08-26T22:22:12.673Z,90.70
2017-08-26T22:24:41.641Z,90.70
2017-08-26T22:27:10.637Z,90.80
2017-08-26T22:29:39.704Z,90.70
2017-08-26T22:32:08.739Z,90.50
2017-08-26T22:34:37.698Z,90.30
2017-08-26T22:37:06.741Z,90.30
2017-08-26T22:39:35.824Z,90.30
2017-08-26T22:42:04.821Z,90.40
2017-08-26T22:44:33.804Z,90.60
2017-08-26T22:47:03.365Z,90.60
2017-08-26T22:49:33.305Z,90.40
2017-08-26T22:52:02.299Z,90.40
2017-08-26T22:54:31.308Z,90.80
2017-08-26T22:57:00.897Z,90.60
2017-08-26T22:59:29.881Z,90.50
2017-08-26T23:01:58.861Z,90.70
2017-08-26T23:04:27.860Z,90.60
2017-08-26T23:06:56.909Z,90.80
2017-08-26T23:09:25.935Z,90.80
2017-08-26T23:11:54.908Z,90.50
2017-08-26T23:14:24.006Z,90.40
2017-08-26T23:16:53.021Z,90.30
2017-08-26T23:19:22.006Z,90.20
2017-08-26T23:21:51.755Z,90.40
2017-08-26T23:24:21.353Z,90.10
2017-08-26T23:26:50.386Z,90.30
2017-08-26T23:29:19.351Z,90.50
2017-08-26T23:31:48.296Z,90.60
2017-08-26T23:34:17.297Z,90.70
2017-08-26T23:36:47.016Z,90.70
2017-08-26T23:39:16.123Z,90.70
2017-08-26T23:41:45.122Z,90.70
2017-08-26T23:44:14.109Z,90.70
2017-08-26T23:46:43.091Z,90.50
2017-08-26T23:49:12.096Z,90.70
2017-08-26T23:51:41.470Z,90.50
2017-08-26T23:54:10.615Z,90.40
2017-08-26T23:56:39.598Z,90.40
2017-08-26T23:59:08.552Z,90.50
